Fort Raleigh City, North Carolina
Current Conditions -  °F | °C
As of 4:35 PM on Saturday 25 Oct 2014 (Local Time) from KMQI Reporting Station
Clear Clear  
Wind Chill: 66°   Ceiling: Unl
Heat Index: 66°   Visibility: 10mi
Dew Point: 46°   Wind: 0mph
Humidity: 48%   Direction: NA
Pressure: 29.87"   Gusts: NA
Location:  35.8834°N, 75.6616°W
Report Text: KMQI 252035Z AUTO 00000KT 10SM CLR 19/08 A2987 RMK AO2 T01910079
Loading
Personal Weather Stations






























Interactive Weather Map
Tropical Storm Tracking
New forecast layout! Learn more

10-Day Weather Forecast

Advertisements
Track Severe Weather on mobile